Time;durP1;ratioP1;P1;durP2;ratioP2;P2;SDS_P1;SDS_P2;PMS_P1;PMS_P2;Temp;Humidity;BMP_temperature;BMP_pressure;BME280_temperature;BME280_humidity;BME280_pressure;Samples;Min_cycle;Max_cycle;Signal;HPM_P1;HPM_P2
2022/07/03 00:00:36;;;;;;;;;;;15.90;92.70;;;;;;5034393;28;19921;-72
2022/07/03 00:03:03;;;;;;;;;;;15.80;92.60;;;;;;5018095;28;19925;-73
2022/07/03 00:05:31;;;;;;;;;;;15.80;92.60;;;;;;5001639;28;20339;-73
2022/07/03 00:07:58;;;;;;;;;;;15.80;92.50;;;;;;5000664;28;19932;-72
2022/07/03 00:10:26;;;;;;;;;;;15.70;92.70;;;;;;5035043;28;19921;-73
2022/07/03 00:12:53;;;;;;;;;;;15.70;92.40;;;;;;5035024;28;19921;-72
2022/07/03 00:15:21;;;;;;;;;;;15.60;92.30;;;;;;5033911;28;19920;-73
2022/07/03 00:17:48;;;;;;;;;;;15.50;92.00;;;;;;5034762;28;19928;-73
2022/07/03 00:20:15;;;;;;;;;;;15.50;91.90;;;;;;5033821;28;20374;-73
2022/07/03 00:22:43;;;;;;;;;;;15.50;91.80;;;;;;5017657;28;19921;-72
2022/07/03 00:25:12;;;;;;;;;;;15.50;91.50;;;;;;5034993;28;19921;-73
2022/07/03 00:27:43;;;;;;;;;;;15.50;91.60;;;;;;5033886;28;19984;-72
2022/07/03 00:30:10;;;;;;;;;;;15.50;91.50;;;;;;5018006;28;19921;-74
2022/07/03 00:32:38;;;;;;;;;;;15.50;91.50;;;;;;5034869;28;19921;-72
2022/07/03 00:35:06;;;;;;;;;;;15.60;91.20;;;;;;5033656;28;19921;-72
2022/07/03 00:37:33;;;;;;;;;;;15.60;90.70;;;;;;5017593;28;19921;-72
2022/07/03 00:40:01;;;;;;;;;;;15.60;90.90;;;;;;5033617;28;19921;-73
2022/07/03 00:42:30;;;;;;;;;;;15.60;90.70;;;;;;5034680;28;19921;-74
2022/07/03 00:44:59;;;;;;;;;;;15.60;90.60;;;;;;5017793;28;19936;-72
2022/07/03 00:47:27;;;;;;;;;;;15.50;90.40;;;;;;5033574;28;19928;-73
2022/07/03 00:49:57;;;;;;;;;;;15.50;90.40;;;;;;5036682;28;19928;-74
2022/07/03 00:52:24;;;;;;;;;;;15.50;90.40;;;;;;5021711;28;19921;-73
2022/07/03 00:54:57;;;;;;;;;;;15.50;90.50;;;;;;5037378;28;19925;-73
2022/07/03 00:57:25;;;;;;;;;;;15.50;90.50;;;;;;5021392;28;19928;-72
2022/07/03 00:59:53;;;;;;;;;;;15.50;90.60;;;;;;5037309;28;19921;-73
2022/07/03 01:02:39;;;;;;;;;;;15.50;90.50;;;;;;5038154;28;19921;-75
2022/07/03 01:05:11;;;;;;;;;;;15.40;90.60;;;;;;5021432;28;19921;-74
2022/07/03 01:07:51;;;;;;;;;;;15.40;90.60;;;;;;5019731;28;19921;-74
2022/07/03 01:10:28;;;;;;;;;;;15.40;90.70;;;;;;5038264;28;19936;-73
2022/07/03 01:12:58;;;;;;;;;;;15.30;90.90;;;;;;5037984;28;19921;-72
2022/07/03 01:15:37;;;;;;;;;;;15.30;91.00;;;;;;5036863;28;19928;-75
2022/07/03 01:18:20;;;;;;;;;;;15.30;91.20;;;;;;5038525;28;19921;-72
2022/07/03 01:20:53;;;;;;;;;;;15.20;91.20;;;;;;5036757;28;20356;-72
2022/07/03 01:23:29;;;;;;;;;;;15.20;91.30;;;;;;5004452;28;19921;-74
2022/07/03 01:25:59;;;;;;;;;;;15.10;91.40;;;;;;5038251;28;19928;-73
2022/07/03 01:28:27;;;;;;;;;;;15.10;91.60;;;;;;5036809;28;20356;-74
2022/07/03 01:30:55;;;;;;;;;;;15.00;91.40;;;;;;5037801;28;19944;-73
2022/07/03 01:33:24;;;;;;;;;;;15.00;91.60;;;;;;5036781;28;19924;-74
2022/07/03 01:35:54;;;;;;;;;;;15.00;91.60;;;;;;5037724;28;19928;-73
2022/07/03 01:38:22;;;;;;;;;;;15.00;91.80;;;;;;5021029;28;20363;-73
2022/07/03 01:40:50;;;;;;;;;;;15.00;91.80;;;;;;5036735;28;19992;-73
2022/07/03 01:43:18;;;;;;;;;;;15.00;91.70;;;;;;5020537;28;19943;-74
2022/07/03 01:45:47;;;;;;;;;;;14.90;91.90;;;;;;5037371;28;19921;-74
2022/07/03 01:48:14;;;;;;;;;;;14.80;91.80;;;;;;5019124;28;19921;-75
2022/07/03 01:50:42;;;;;;;;;;;14.80;92.10;;;;;;5037229;28;20358;-74
2022/07/03 01:53:11;;;;;;;;;;;14.70;92.00;;;;;;5036327;28;19928;-74
2022/07/03 01:55:39;;;;;;;;;;;14.60;92.20;;;;;;5037397;28;19921;-75
2022/07/03 01:58:07;;;;;;;;;;;14.60;92.70;;;;;;5037335;28;19921;-73
2022/07/03 02:00:46;;;;;;;;;;;14.50;92.50;;;;;;5035866;28;19921;-72
2022/07/03 02:03:19;;;;;;;;;;;14.40;92.80;;;;;;5037146;28;19925;-74
2022/07/03 02:05:46;;;;;;;;;;;14.40;92.80;;;;;;5037500;28;19944;-74
2022/07/03 02:08:26;;;;;;;;;;;14.30;92.90;;;;;;5035951;28;20374;-73
2022/07/03 02:10:56;;;;;;;;;;;14.20;93.20;;;;;;5037300;28;19940;-74
2022/07/03 02:13:23;;;;;;;;;;;14.20;93.40;;;;;;5035835;28;19932;-72
2022/07/03 02:15:51;;;;;;;;;;;14.20;93.50;;;;;;5036923;28;19921;-73
2022/07/03 02:18:27;;;;;;;;;;;14.10;93.40;;;;;;5019722;28;19928;-72
2022/07/03 02:21:04;;;;;;;;;;;14.00;93.60;;;;;;5035711;28;19971;-73
2022/07/03 02:23:36;;;;;;;;;;;14.00;93.50;;;;;;5019712;28;19921;-74
2022/07/03 02:26:04;;;;;;;;;;;14.00;93.80;;;;;;5019257;28;19925;-73
2022/07/03 02:28:55;;;;;;;;;;;13.90;94.30;;;;;;5018192;28;20352;-74
2022/07/03 02:31:24;;;;;;;;;;;13.80;94.30;;;;;;4992266;28;19921;-72
2022/07/03 02:33:56;;;;;;;;;;;13.80;94.10;;;;;;5035693;28;19921;-73
2022/07/03 02:36:26;;;;;;;;;;;13.70;94.60;;;;;;5036430;28;19925;-74
2022/07/03 02:38:55;;;;;;;;;;;13.70;94.70;;;;;;5036673;28;19925;-72
2022/07/03 02:41:41;;;;;;;;;;;13.60;95.10;;;;;;5018381;28;19932;-73
2022/07/03 02:44:24;;;;;;;;;;;13.60;94.70;;;;;;5036487;28;19932;-71
2022/07/03 02:47:14;;;;;;;;;;;13.50;95.10;;;;;;5035192;28;19928;-72
2022/07/03 02:49:48;;;;;;;;;;;13.50;95.40;;;;;;5019670;28;19920;-75
2022/07/03 02:52:34;;;;;;;;;;;13.40;95.80;;;;;;5036605;28;20284;-74
2022/07/03 02:55:13;;;;;;;;;;;13.40;96.20;;;;;;5035050;28;19921;-73
2022/07/03 02:57:41;;;;;;;;;;;13.40;96.30;;;;;;5019556;28;19928;-74
2022/07/03 03:00:09;;;;;;;;;;;13.30;96.40;;;;;;5035245;28;20363;-72
2022/07/03 03:02:37;;;;;;;;;;;13.30;96.70;;;;;;5036035;28;19921;-73
2022/07/03 03:05:12;;;;;;;;;;;13.20;96.30;;;;;;5036257;28;19921;-72
2022/07/03 03:07:52;;;;;;;;;;;13.20;96.50;;;;;;5034767;28;19921;-74
2022/07/03 03:10:20;;;;;;;;;;;13.20;96.20;;;;;;5036139;28;19928;-73
2022/07/03 03:12:53;;;;;;;;;;;13.20;96.50;;;;;;5035607;28;19928;-73
2022/07/03 03:15:24;;;;;;;;;;;13.20;96.70;;;;;;5034936;28;19920;-73
2022/07/03 03:17:54;;;;;;;;;;;13.10;96.50;;;;;;5035558;28;19921;-75
2022/07/03 03:20:26;;;;;;;;;;;13.10;96.70;;;;;;5035212;28;19921;-74
2022/07/03 03:23:00;;;;;;;;;;;13.00;96.80;;;;;;5035780;28;19936;-74
2022/07/03 03:25:27;;;;;;;;;;;13.10;97.10;;;;;;5035832;28;19940;-74
2022/07/03 03:27:58;;;;;;;;;;;13.10;97.00;;;;;;5034700;28;19928;-75
2022/07/03 03:30:26;;;;;;;;;;;13.00;97.20;;;;;;5018114;28;20271;-74
2022/07/03 03:32:53;;;;;;;;;;;13.00;97.20;;;;;;5018255;28;20275;-73
2022/07/03 03:35:20;;;;;;;;;;;12.90;97.30;;;;;;5016915;28;19921;-75
2022/07/03 03:37:48;;;;;;;;;;;12.90;97.40;;;;;;5035397;28;19921;-75
2022/07/03 03:40:16;;;;;;;;;;;12.90;97.60;;;;;;5034254;28;19928;-73
2022/07/03 03:42:44;;;;;;;;;;;12.80;97.60;;;;;;5035585;28;19932;-75
2022/07/03 03:45:11;;;;;;;;;;;12.80;97.90;;;;;;5035451;28;19928;-73
2022/07/03 03:47:38;;;;;;;;;;;12.80;97.90;;;;;;5034263;28;19921;-72
2022/07/03 03:50:06;;;;;;;;;;;12.70;97.70;;;;;;5018289;28;19921;-74
2022/07/03 03:52:33;;;;;;;;;;;12.70;98.30;;;;;;5035215;28;19920;-73
2022/07/03 03:55:01;;;;;;;;;;;12.70;98.20;;;;;;5034480;28;19921;-74
2022/07/03 03:57:28;;;;;;;;;;;12.70;98.20;;;;;;5035317;28;19928;-74
2022/07/03 03:59:56;;;;;;;;;;;12.70;98.20;;;;;;5034182;28;19932;-74
2022/07/03 04:02:24;;;;;;;;;;;12.60;98.40;;;;;;5035469;28;19925;-74
2022/07/03 04:04:51;;;;;;;;;;;12.60;98.40;;;;;;5035216;28;19988;-74
2022/07/03 04:07:19;;;;;;;;;;;12.60;98.80;;;;;;5016578;28;19921;-73
2022/07/03 04:09:46;;;;;;;;;;;12.60;98.90;;;;;;5034945;28;19928;-73
2022/07/03 04:12:13;;;;;;;;;;;12.60;98.80;;;;;;5034767;28;19924;-72
2022/07/03 04:14:41;;;;;;;;;;;12.60;98.80;;;;;;5034091;28;19921;-73
2022/07/03 04:17:08;;;;;;;;;;;12.60;98.80;;;;;;5034833;28;19928;-74
2022/07/03 04:19:36;;;;;;;;;;;12.60;99.10;;;;;;5035057;28;19921;-75
2022/07/03 04:22:08;;;;;;;;;;;12.50;99.10;;;;;;5033830;28;19921;-73
2022/07/03 04:24:36;;;;;;;;;;;13.10;99.40;;;;;;5020672;28;19921;-74
2022/07/03 04:27:03;;;;;;;;;;;12.50;99.10;;;;;;5037823;28;20351;-74
2022/07/03 04:29:31;;;;;;;;;;;12.60;99.20;;;;;;5039014;28;19921;-73
2022/07/03 04:31:58;;;;;;;;;;;12.50;99.70;;;;;;5021428;28;19928;-75
2022/07/03 04:34:26;;;;;;;;;;;12.60;99.30;;;;;;5037714;28;20270;-75
2022/07/03 04:36:53;;;;;;;;;;;12.50;99.40;;;;;;5038835;28;19920;-75
2022/07/03 04:39:20;;;;;;;;;;;12.60;99.20;;;;;;5021291;28;20259;-74
2022/07/03 04:41:48;;;;;;;;;;;12.50;99.50;;;;;;5037703;28;19928;-73
2022/07/03 04:44:15;;;;;;;;;;;12.50;99.40;;;;;;5038606;28;19932;-75
2022/07/03 04:46:42;;;;;;;;;;;12.50;99.50;;;;;;5037348;28;19928;-76
2022/07/03 04:49:10;;;;;;;;;;;12.50;99.50;;;;;;5038529;28;19921;-73
2022/07/03 04:51:37;;;;;;;;;;;12.60;99.80;;;;;;5038583;28;19939;-75
2022/07/03 04:54:04;;;;;;;;;;;12.60;99.90;;;;;;5037664;28;19928;-75
2022/07/03 04:56:32;;;;;;;;;;;12.60;99.90;;;;;;5020970;28;19921;-74
2022/07/03 04:58:59;;;;;;;;;;;12.60;99.90;;;;;;5038303;28;19921;-75
2022/07/03 05:01:26;;;;;;;;;;;12.60;99.90;;;;;;5037214;28;19921;-75
2022/07/03 05:03:54;;;;;;;;;;;12.60;99.90;;;;;;5038419;28;19925;-73
2022/07/03 05:06:21;;;;;;;;;;;12.70;99.90;;;;;;5038145;28;19921;-74
2022/07/03 05:08:48;;;;;;;;;;;12.70;99.90;;;;;;5037033;28;19921;-72
2022/07/03 05:11:16;;;;;;;;;;;12.70;99.90;;;;;;5038104;28;19921;-73
2022/07/03 05:13:43;;;;;;;;;;;12.80;99.90;;;;;;5037310;28;19921;-74
2022/07/03 05:16:10;;;;;;;;;;;12.80;99.90;;;;;;5039882;28;19928;-73
2022/07/03 05:18:38;;;;;;;;;;;12.80;99.90;;;;;;5037952;28;20275;-74
2022/07/03 05:21:05;;;;;;;;;;;12.90;99.90;;;;;;5036707;28;19925;-75
2022/07/03 05:23:33;;;;;;;;;;;12.90;99.90;;;;;;5037766;28;19921;-75
2022/07/03 05:26:00;;;;;;;;;;;12.90;99.90;;;;;;5020493;28;19928;-73
2022/07/03 05:28:27;;;;;;;;;;;13.00;99.90;;;;;;5036749;28;19921;-74
2022/07/03 05:30:55;;;;;;;;;;;13.00;99.90;;;;;;5037754;28;20262;-73
2022/07/03 05:33:22;;;;;;;;;;;13.00;99.90;;;;;;5036494;28;19939;-74
2022/07/03 05:35:50;;;;;;;;;;;13.00;99.90;;;;;;5037512;28;19928;-74
2022/07/03 05:39:31;;;;;;;;;;;13.10;99.90;;;;;;5037710;28;20275;-73
2022/07/03 05:41:04;;;;;;;;;;;13.10;99.90;;;;;;5036606;28;19932;-75
2022/07/03 05:43:32;;;;;;;;;;;13.20;99.90;;;;;;5020409;28;19920;-75
2022/07/03 05:45:59;;;;;;;;;;;13.20;99.90;;;;;;5037401;28;19921;-74
2022/07/03 05:48:27;;;;;;;;;;;13.30;99.90;;;;;;5019160;28;20355;-72
2022/07/03 05:50:54;;;;;;;;;;;13.30;99.80;;;;;;5037710;28;19921;-74
2022/07/03 05:53:22;;;;;;;;;;;13.40;99.80;;;;;;5018684;28;20370;-72
2022/07/03 05:55:49;;;;;;;;;;;13.40;99.60;;;;;;5020447;28;19921;-74
2022/07/03 05:58:16;;;;;;;;;;;13.50;99.60;;;;;;5020135;28;19928;-74
2022/07/03 06:00:44;;;;;;;;;;;13.50;99.50;;;;;;5036285;28;19921;-73
2022/07/03 06:03:11;;;;;;;;;;;13.60;99.40;;;;;;5037436;28;19928;-74
2022/07/03 06:05:39;;;;;;;;;;;13.60;99.80;;;;;;5037252;28;20374;-75
2022/07/03 06:08:06;;;;;;;;;;;13.70;99.40;;;;;;5035977;28;19921;-73
2022/07/03 06:10:34;;;;;;;;;;;13.70;99.20;;;;;;5037164;28;19921;-75
2022/07/03 06:13:01;;;;;;;;;;;13.80;99.20;;;;;;5036901;28;20252;-74
2022/07/03 06:15:28;;;;;;;;;;;13.80;99.40;;;;;;5035789;28;19946;-73
2022/07/03 06:17:56;;;;;;;;;;;13.90;98.90;;;;;;5036801;28;19928;-73
2022/07/03 06:20:24;;;;;;;;;;;13.90;98.80;;;;;;5018715;28;19943;-75
2022/07/03 06:22:51;;;;;;;;;;;14.00;98.80;;;;;;5037124;28;20259;-74
2022/07/03 06:25:18;;;;;;;;;;;13.90;98.60;;;;;;5036953;28;19928;-75
2022/07/03 06:27:46;;;;;;;;;;;13.90;98.60;;;;;;5035677;28;19921;-74
2022/07/03 06:30:13;;;;;;;;;;;14.00;98.50;;;;;;5036686;28;19921;-75
2022/07/03 06:32:40;;;;;;;;;;;14.00;98.40;;;;;;5036521;28;19921;-74
2022/07/03 06:35:08;;;;;;;;;;;14.20;98.40;;;;;;5035678;28;19928;-74
2022/07/03 06:37:35;;;;;;;;;;;14.20;98.30;;;;;;5036708;28;19925;-74
2022/07/03 06:40:03;;;;;;;;;;;14.20;97.90;;;;;;5035289;28;19921;-75
2022/07/03 06:42:30;;;;;;;;;;;14.30;97.70;;;;;;5036489;28;20283;-75
2022/07/03 06:44:57;;;;;;;;;;;14.50;97.80;;;;;;5019540;28;20027;-75
2022/07/03 06:47:25;;;;;;;;;;;14.60;97.60;;;;;;5016916;28;19925;-74
2022/07/03 06:49:52;;;;;;;;;;;14.80;97.20;;;;;;5036410;28;19927;-74
2022/07/03 06:52:20;;;;;;;;;;;14.90;96.20;;;;;;5002915;28;19928;-74
2022/07/03 06:54:47;;;;;;;;;;;15.10;95.90;;;;;;5035082;28;19932;-74
2022/07/03 06:57:14;;;;;;;;;;;15.20;95.60;;;;;;5036194;28;19925;-75
2022/07/03 06:59:42;;;;;;;;;;;15.40;94.80;;;;;;5036145;28;19921;-74
2022/07/03 07:02:10;;;;;;;;;;;15.60;94.90;;;;;;5035403;28;20319;-73
2022/07/03 07:04:37;;;;;;;;;;;15.70;94.80;;;;;;5036240;28;19928;-74
2022/07/03 07:07:05;;;;;;;;;;;15.80;94.20;;;;;;5034919;28;19932;-75
2022/07/03 07:09:32;;;;;;;;;;;15.90;93.60;;;;;;5018720;28;19921;-74
2022/07/03 07:11:59;;;;;;;;;;;16.00;93.40;;;;;;5035762;28;19921;-74
2022/07/03 07:14:27;;;;;;;;;;;16.10;93.50;;;;;;5034831;28;19940;-73
2022/07/03 07:16:54;;;;;;;;;;;16.10;93.00;;;;;;5035595;28;20474;-74
2022/07/03 07:19:22;;;;;;;;;;;16.20;92.70;;;;;;5035956;28;19920;-74
2022/07/03 07:21:49;;;;;;;;;;;16.30;92.20;;;;;;5017372;28;19940;-74
2022/07/03 07:24:17;;;;;;;;;;;16.30;92.00;;;;;;5035972;28;19923;-74
2022/07/03 07:26:44;;;;;;;;;;;16.30;91.60;;;;;;5034606;28;19921;-73
2022/07/03 07:29:11;;;;;;;;;;;16.30;91.70;;;;;;5035689;28;19928;-77
2022/07/03 07:31:39;;;;;;;;;;;16.30;91.40;;;;;;5034886;28;20358;-75
2022/07/03 07:34:06;;;;;;;;;;;16.40;92.10;;;;;;5034092;28;19921;-75
2022/07/03 07:36:34;;;;;;;;;;;16.50;91.70;;;;;;5035165;28;19932;-75
2022/07/03 07:39:02;;;;;;;;;;;16.60;91.40;;;;;;5035157;28;20279;-75
2022/07/03 07:41:29;;;;;;;;;;;16.70;91.00;;;;;;5016960;28;19928;-74
2022/07/03 07:43:56;;;;;;;;;;;16.70;90.90;;;;;;5018069;28;19928;-75
2022/07/03 07:46:24;;;;;;;;;;;16.70;91.20;;;;;;5034855;28;19920;-74
2022/07/03 07:48:51;;;;;;;;;;;16.80;91.10;;;;;;5034886;28;20271;-75
2022/07/03 07:51:18;;;;;;;;;;;16.80;91.00;;;;;;5035010;28;19922;-75
2022/07/03 07:53:46;;;;;;;;;;;16.90;90.80;;;;;;5033826;28;19925;-74
2022/07/03 07:56:13;;;;;;;;;;;17.00;90.50;;;;;;5034577;28;19958;-75
2022/07/03 07:58:41;;;;;;;;;;;17.10;90.60;;;;;;5034663;28;19921;-75
2022/07/03 08:06:50;;;;;;;;;;;17.30;89.20;;;;;;5033771;28;19921;-73
2022/07/03 08:09:18;;;;;;;;;;;17.50;88.30;;;;;;5034545;28;19920;-74
2022/07/03 08:11:45;;;;;;;;;;;17.50;88.70;;;;;;5034674;28;19932;-74
2022/07/03 08:14:12;;;;;;;;;;;17.50;89.10;;;;;;5033696;28;19928;-76
2022/07/03 08:16:40;;;;;;;;;;;17.70;88.40;;;;;;5006724;28;20355;-74
2022/07/03 08:19:08;;;;;;;;;;;17.70;87.50;;;;;;5054568;28;19928;-75
2022/07/03 08:21:35;;;;;;;;;;;17.90;84.60;;;;;;5053498;28;19925;-74
2022/07/03 08:24:03;;;;;;;;;;;17.90;85.80;;;;;;5054536;28;19921;-76
2022/07/03 08:26:30;;;;;;;;;;;18.00;85.10;;;;;;5053354;28;20267;-74
2022/07/03 08:28:58;;;;;;;;;;;18.00;85.40;;;;;;5054531;28;19921;-75
2022/07/03 08:31:25;;;;;;;;;;;18.00;85.80;;;;;;5054555;28;20362;-74
2022/07/03 08:33:52;;;;;;;;;;;18.00;84.40;;;;;;5053450;28;19920;-74
2022/07/03 08:36:20;;;;;;;;;;;18.10;85.40;;;;;;5054452;28;19920;-73
2022/07/03 08:38:47;;;;;;;;;;;18.20;83.60;;;;;;5054137;28;19935;-74
2022/07/03 08:41:16;;;;;;;;;;;18.20;82.70;;;;;;5053358;28;19920;-75
2022/07/03 08:43:43;;;;;;;;;;;18.40;83.50;;;;;;5054373;28;19921;-76
2022/07/03 08:46:11;;;;;;;;;;;18.50;82.90;;;;;;5054322;28;19920;-74
2022/07/03 08:48:39;;;;;;;;;;;18.70;82.20;;;;;;5036093;28;19920;-74
2022/07/03 08:51:08;;;;;;;;;;;18.90;80.90;;;;;;5054386;28;19920;-75
2022/07/03 08:53:35;;;;;;;;;;;19.10;82.00;;;;;;5052868;28;19929;-75
2022/07/03 08:56:03;;;;;;;;;;;19.20;80.90;;;;;;5054254;28;19921;-73
2022/07/03 08:58:31;;;;;;;;;;;19.30;80.10;;;;;;5050203;28;19921;-75
2022/07/03 09:01:02;;;;;;;;;;;19.40;80.40;;;;;;5047272;28;19928;-76
2022/07/03 09:03:30;;;;;;;;;;;19.30;80.40;;;;;;5034677;28;20287;-73
2022/07/03 09:05:58;;;;;;;;;;;19.30;80.90;;;;;;5034391;28;19921;-77
2022/07/03 09:08:26;;;;;;;;;;;19.30;80.50;;;;;;5033370;28;19924;-74
2022/07/03 09:10:54;;;;;;;;;;;19.30;78.60;;;;;;5036177;28;19921;-74
2022/07/03 09:13:22;;;;;;;;;;;19.20;79.10;;;;;;5037075;28;20271;-76
2022/07/03 09:15:49;;;;;;;;;;;19.10;79.00;;;;;;5038008;28;19921;-74
2022/07/03 09:18:16;;;;;;;;;;;19.20;79.50;;;;;;5020365;28;19921;-74
2022/07/03 09:20:44;;;;;;;;;;;19.20;78.50;;;;;;5000276;28;19923;-76
2022/07/03 09:23:16;;;;;;;;;;;19.20;79.00;;;;;;5018343;28;19921;-75
2022/07/03 09:26:09;;;;;;;;;;;19.20;78.90;;;;;;5001378;28;20370;-76
2022/07/03 09:28:44;;;;;;;;;;;19.20;78.80;;;;;;5014530;28;19929;-74
2022/07/03 09:31:13;;;;;;;;;;;19.10;77.60;;;;;;5018306;28;20280;-75
2022/07/03 09:34:01;;;;;;;;;;;19.00;77.20;;;;;;5017163;28;19921;-73
2022/07/03 09:36:44;;;;;;;;;;;19.00;78.10;;;;;;5018713;28;19921;-76
2022/07/03 09:39:17;;;;;;;;;;;19.00;77.90;;;;;;5018589;28;19926;-74
2022/07/03 09:41:51;;;;;;;;;;;19.20;78.40;;;;;;5000075;28;19921;-76
2022/07/03 09:44:28;;;;;;;;;;;19.50;79.30;;;;;;5017939;28;19921;-76
2022/07/03 09:47:09;;;;;;;;;;;19.70;77.50;;;;;;5016776;28;19933;-75
2022/07/03 09:49:46;;;;;;;;;;;19.90;77.30;;;;;;5017703;28;19926;-74
2022/07/03 09:52:39;;;;;;;;;;;19.90;75.60;;;;;;5017623;28;19921;-77
2022/07/03 09:55:10;;;;;;;;;;;19.90;76.10;;;;;;5013482;28;19928;-74
2022/07/03 09:57:42;;;;;;;;;;;20.00;75.70;;;;;;5018349;28;19922;-75
2022/07/03 10:00:13;;;;;;;;;;;20.10;75.70;;;;;;5016655;28;19928;-74
2022/07/03 10:02:55;;;;;;;;;;;20.10;77.10;;;;;;5018059;28;19921;-74
2022/07/03 10:05:24;;;;;;;;;;;20.40;76.10;;;;;;5017525;28;19921;-75
2022/07/03 10:07:53;;;;;;;;;;;20.50;74.60;;;;;;5016451;28;19925;-75
2022/07/03 10:10:21;;;;;;;;;;;20.40;75.50;;;;;;5017302;28;20245;-71
2022/07/03 10:12:50;;;;;;;;;;;20.40;75.00;;;;;;5017112;28;19931;-74
2022/07/03 10:15:19;;;;;;;;;;;20.30;75.10;;;;;;5016290;28;19921;-72
2022/07/03 10:17:47;;;;;;;;;;;20.20;76.30;;;;;;5023308;28;19925;-71
2022/07/03 10:20:15;;;;;;;;;;;20.20;76.00;;;;;;5036095;28;19928;-75
2022/07/03 10:22:45;;;;;;;;;;;20.20;75.20;;;;;;5035896;28;19921;-71
2022/07/03 10:25:13;;;;;;;;;;;20.30;75.10;;;;;;5036675;28;19921;-69
2022/07/03 10:27:41;;;;;;;;;;;20.40;74.20;;;;;;5035840;28;19921;-69
2022/07/03 10:30:08;;;;;;;;;;;20.30;76.70;;;;;;5036905;28;19921;-71
2022/07/03 10:32:37;;;;;;;;;;;20.30;74.10;;;;;;5036828;28;19947;-70
2022/07/03 10:35:05;;;;;;;;;;;20.40;74.30;;;;;;5035859;28;20003;-69
2022/07/03 10:37:37;;;;;;;;;;;20.50;73.40;;;;;;5036683;28;19921;-71
2022/07/03 10:46:07;;;;;;;;;;;20.90;72.10;;;;;;5036322;28;19940;-74
2022/07/03 10:48:50;;;;;;;;;;;21.00;72.80;;;;;;5035560;28;19921;-71
2022/07/03 10:51:18;;;;;;;;;;;21.10;72.70;;;;;;5036589;28;20351;-70
2022/07/03 10:53:46;;;;;;;;;;;21.00;72.40;;;;;;5035386;28;19921;-73
2022/07/03 10:56:16;;;;;;;;;;;20.90;72.50;;;;;;5036596;28;19921;-70
2022/07/03 10:58:57;;;;;;;;;;;20.90;73.00;;;;;;5035552;28;19920;-70
2022/07/03 11:01:25;;;;;;;;;;;20.90;73.60;;;;;;5035375;28;19921;-70
2022/07/03 11:03:54;;;;;;;;;;;20.90;74.00;;;;;;5036354;28;20252;-70
2022/07/03 11:06:42;;;;;;;;;;;20.90;73.90;;;;;;5035422;28;20344;-70
2022/07/03 11:09:10;;;;;;;;;;;20.90;74.80;;;;;;5035962;28;19925;-69
2022/07/03 11:11:57;;;;;;;;;;;20.80;74.20;;;;;;5035117;28;19928;-69
2022/07/03 11:14:26;;;;;;;;;;;20.70;74.20;;;;;;5034967;28;20378;-69
2022/07/03 11:17:11;;;;;;;;;;;20.70;74.90;;;;;;5029420;28;19925;-69
2022/07/03 11:19:39;;;;;;;;;;;20.70;74.80;;;;;;5016487;28;19929;-69
2022/07/03 11:22:12;;;;;;;;;;;20.70;74.30;;;;;;5015051;28;19933;-70
2022/07/03 11:24:42;;;;;;;;;;;20.70;74.70;;;;;;4999522;28;19921;-70
2022/07/03 11:27:14;;;;;;;;;;;20.60;74.60;;;;;;5015272;28;20279;-69
2022/07/03 11:29:47;;;;;;;;;;;20.50;75.10;;;;;;5015933;28;19929;-69
2022/07/03 11:32:34;;;;;;;;;;;20.30;75.10;;;;;;5016028;28;19932;-69
2022/07/03 11:35:01;;;;;;;;;;;20.20;75.90;;;;;;5014639;28;19921;-69
2022/07/03 11:37:30;;;;;;;;;;;20.30;76.40;;;;;;4998843;28;19921;-71
2022/07/03 11:40:01;;;;;;;;;;;20.50;75.20;;;;;;5017310;28;19924;-76
2022/07/03 11:42:34;;;;;;;;;;;20.70;74.10;;;;;;5032026;28;19925;-74
2022/07/03 11:45:01;;;;;;;;;;;20.90;73.60;;;;;;5045712;28;19921;-73
2022/07/03 11:47:29;;;;;;;;;;;21.20;74.10;;;;;;5037168;28;19932;-73
2022/07/03 11:49:57;;;;;;;;;;;21.30;72.80;;;;;;5015711;28;19925;-75
2022/07/03 11:52:33;;;;;;;;;;;21.50;72.00;;;;;;5015589;28;19929;-76
2022/07/03 11:55:01;;;;;;;;;;;21.60;71.50;;;;;;5018518;28;19921;-75
2022/07/03 11:57:28;;;;;;;;;;;21.50;72.80;;;;;;5015145;28;19922;-74
2022/07/03 12:00:03;;;;;;;;;;;21.50;71.80;;;;;;5015344;28;20366;-73
2022/07/03 12:02:50;;;;;;;;;;;21.40;70.70;;;;;;5017756;28;19932;-73
2022/07/03 12:05:18;;;;;;;;;;;21.20;69.10;;;;;;5018095;28;19932;-73
2022/07/03 12:08:03;;;;;;;;;;;21.20;70.70;;;;;;5016669;28;19921;-73
2022/07/03 12:10:40;;;;;;;;;;;21.30;67.60;;;;;;5035038;28;19921;-74
2022/07/03 12:13:20;;;;;;;;;;;21.30;68.00;;;;;;5034039;28;19932;-73
2022/07/03 12:15:48;;;;;;;;;;;21.20;68.50;;;;;;5009856;28;19989;-73
2022/07/03 12:18:15;;;;;;;;;;;21.20;68.50;;;;;;5014860;28;19929;-76
2022/07/03 12:20:43;;;;;;;;;;;21.30;68.10;;;;;;5014163;28;19929;-77
2022/07/03 12:23:10;;;;;;;;;;;21.50;66.60;;;;;;5014888;28;19928;-73
2022/07/03 12:25:41;;;;;;;;;;;21.60;67.30;;;;;;4997734;28;20344;-73
2022/07/03 12:28:09;;;;;;;;;;;21.70;67.20;;;;;;5017157;28;19920;-74
2022/07/03 12:30:37;;;;;;;;;;;21.80;66.80;;;;;;5017236;28;19952;-72
2022/07/03 12:33:05;;;;;;;;;;;21.80;65.70;;;;;;5034578;28;19928;-73
2022/07/03 12:35:33;;;;;;;;;;;21.80;66.00;;;;;;5031361;28;19932;-72
2022/07/03 12:38:00;;;;;;;;;;;21.80;66.10;;;;;;5034783;28;19930;-72
2022/07/03 12:40:29;;;;;;;;;;;21.90;66.60;;;;;;5033601;28;19924;-75
2022/07/03 12:42:58;;;;;;;;;;;22.00;66.50;;;;;;5033455;28;19925;-77
2022/07/03 12:45:27;;;;;;;;;;;22.10;66.90;;;;;;5034614;28;19921;-74
2022/07/03 12:48:04;;;;;;;;;;;22.20;65.60;;;;;;5037337;28;19921;-76
2022/07/03 12:50:44;;;;;;;;;;;22.20;66.60;;;;;;5038122;28;19921;-74
2022/07/03 12:53:25;;;;;;;;;;;22.10;66.30;;;;;;5037100;28;19921;-78
2022/07/03 12:55:52;;;;;;;;;;;22.00;67.00;;;;;;5038221;28;19921;-75
2022/07/03 13:01:24;;;;;;;;;;;22.20;66.80;;;;;;5037025;28;19921;-77
2022/07/03 13:03:52;;;;;;;;;;;22.60;66.20;;;;;;5038003;28;19921;-76
2022/07/03 13:06:20;;;;;;;;;;;22.90;65.90;;;;;;5037787;28;19921;-75
2022/07/03 13:08:58;;;;;;;;;;;23.30;65.60;;;;;;5019569;28;19932;-75
2022/07/03 13:11:36;;;;;;;;;;;23.50;65.90;;;;;;5020555;28;20359;-74
2022/07/03 13:14:11;;;;;;;;;;;23.80;64.20;;;;;;5035419;28;19951;-69
2022/07/03 13:16:40;;;;;;;;;;;24.00;65.00;;;;;;5037826;28;19927;-69
2022/07/03 13:19:08;;;;;;;;;;;24.30;63.60;;;;;;5037789;28;19925;-70
2022/07/03 13:21:35;;;;;;;;;;;24.30;62.70;;;;;;5019434;28;19921;-69
2022/07/03 13:24:03;;;;;;;;;;;24.20;62.40;;;;;;5019756;28;20225;-69
2022/07/03 13:26:31;;;;;;;;;;;24.10;62.10;;;;;;5018163;28;19921;-70
2022/07/03 13:28:58;;;;;;;;;;;23.90;62.00;;;;;;5020281;28;20316;-70
2022/07/03 13:31:26;;;;;;;;;;;23.80;62.60;;;;;;5037659;28;20356;-70
2022/07/03 13:33:53;;;;;;;;;;;23.60;63.80;;;;;;5019110;28;20351;-70
2022/07/03 13:36:21;;;;;;;;;;;23.50;64.40;;;;;;5037454;28;19921;-70
2022/07/03 13:38:48;;;;;;;;;;;23.40;64.70;;;;;;5036977;28;19935;-69
2022/07/03 13:41:16;;;;;;;;;;;23.20;64.40;;;;;;5036252;28;19932;-69
2022/07/03 13:43:43;;;;;;;;;;;23.20;64.50;;;;;;5037809;28;19921;-69
2022/07/03 13:46:11;;;;;;;;;;;23.00;63.90;;;;;;5037307;28;19921;-69
2022/07/03 13:48:38;;;;;;;;;;;23.00;64.40;;;;;;5035957;28;19928;-70
2022/07/03 13:51:06;;;;;;;;;;;24.00;65.00;;;;;;5036987;28;19921;-70
2022/07/03 13:53:34;;;;;;;;;;;25.30;62.00;;;;;;5035507;28;20271;-69
2022/07/03 13:56:02;;;;;;;;;;;27.20;59.30;;;;;;5036583;28;19920;-70
2022/07/03 13:58:29;;;;;;;;;;;29.10;57.10;;;;;;5036765;28;19920;-70
2022/07/03 14:00:57;;;;;;;;;;;30.20;54.90;;;;;;5035796;28;19921;-70
2022/07/03 14:03:24;;;;;;;;;;;31.20;53.30;;;;;;5036963;28;19920;-69
2022/07/03 14:05:52;;;;;;;;;;;32.40;52.80;;;;;;5036608;28;19921;-68
2022/07/03 14:08:19;;;;;;;;;;;32.60;51.40;;;;;;5035534;28;19932;-71
2022/07/03 14:10:47;;;;;;;;;;;33.10;51.00;;;;;;5036324;28;20370;-69
2022/07/03 14:13:16;;;;;;;;;;;32.80;51.40;;;;;;5036288;28;19921;-69
2022/07/03 14:15:44;;;;;;;;;;;32.60;49.40;;;;;;5036878;28;19928;-68
2022/07/03 14:18:11;;;;;;;;;;;31.70;49.40;;;;;;5036389;28;20336;-68
2022/07/03 14:20:38;;;;;;;;;;;30.30;50.80;;;;;;5035728;28;19925;-74
2022/07/03 14:23:06;;;;;;;;;;;29.10;51.20;;;;;;5036351;28;20260;-71
2022/07/03 14:25:33;;;;;;;;;;;28.00;52.40;;;;;;5036741;28;19928;-70
2022/07/03 14:33:33;;;;;;;;;;;25.90;55.00;;;;;;5035494;28;19921;-71
2022/07/03 14:36:00;;;;;;;;;;;25.20;55.50;;;;;;5036110;28;20272;-69
2022/07/03 14:38:30;;;;;;;;;;;24.80;56.80;;;;;;5036464;28;19932;-69
2022/07/03 14:40:57;;;;;;;;;;;24.30;57.80;;;;;;5035463;28;19928;-70
2022/07/03 14:43:24;;;;;;;;;;;24.00;58.30;;;;;;5036591;28;19928;-70
2022/07/03 14:45:52;;;;;;;;;;;23.60;58.80;;;;;;5019074;28;19932;-70
2022/07/03 14:48:20;;;;;;;;;;;23.40;59.50;;;;;;5035284;28;19929;-70
2022/07/03 14:50:48;;;;;;;;;;;23.20;59.70;;;;;;5036156;28;19925;-69